Search for airport 
image banner adimage banner adimage banner ad
image banner ad

KBFL - Meadows Field

Located in Bakersfield, United States

ICAO - BFL, IATA - BFL

Data provided by Airmate  

General information

Coordinates: N35°26'2" W119°3'28"
Elevation is 510 feet MSL.
Magnetic variation is 14° East
View others Airports in California

Operational data

Special qualification required
Current time UTC:
Current local time:
Weather
METAR: KBFL 141154Z AUTO 33004KT 9SM CLR 20/11 A2997 RMK AO2 SLP142 T02000106 10272 20200 53010
TAF: KBFL 141120Z 1412/1512 32008KT P6SM SKC FM142100 30010G17KT P6SM SKC
View NOTAMs / SUP AIP / TFR affecting this airport [VIEW]
Communications frequencies: [VIEW]

Runways:

RWY identifierQFULength (ft)Width (ft)SurfaceLDA (ft)
12R135°7700100ASPH7703
30L315°7700100ASPH6203
12L135°10849150ASPH10855
30R315°10849150ASPH7429

Airport contact information

Address: Bakersfield United States

Other aviation service providers

Flight schools

Srt Helicopters

Srt Helicopters

Excell Aviation, Inc.

Excell Aviation, Inc.

Bakersfield Flying Club, Inc.

Bakersfield Flying Club, Inc.

Satellite view of KBFL